• Join FlightAware (Why Join?)
  • Login
  • US Flag 
06:43AM EDT


 

Airport Tracker/Info


-or-


 

Live Flight TrackerFlight Track Log ✈ TAM3741 ✈ 17-May-2013 ✈ SBFZ / FOR - SBGR / GRU

Flight Track Log - Related Links

Times and Time Zones

All times are in EDT time to prevent confusion due to time zone crossing. See the TAM3741 flight status page for this flight to view local times or setup timezone preferences in your user account.

Time Position Orientation Groundspeed Altitude Reporting Facility
EDT Latitude Longitude Course Direction KTS MPH feet Rate Location/Type
11:34AM -3.7810 -38.5140 108° East 155 178 900  Level FlightAware
11:34AM -3.7860 -38.4960 106° East 178 205 1,200 720 Climbing FlightAware
11:35AM -3.7930 -38.4690 105° East 214 246 1,600 900 Climbing FlightAware
11:35AM -3.8020 -38.4370 106° East 254 292 2,100 1,680 Climbing FlightAware
11:35AM -3.8120 -38.4220 124° Southeast 253 291 2,900 2,880 Climbing FlightAware
11:35AM -3.8220 -38.4150 145° Southeast 255 293 3,300 2,400 Climbing FlightAware
11:36AM -3.8330 -38.4120 165° South 258 297 3,700 2,400 Climbing FlightAware
11:36AM -3.8750 -38.4160 185° South 264 304 5,100 2,280 Climbing FlightAware
11:37AM -3.9120 -38.4200 186° South 272 313 6,200 2,400 Climbing FlightAware
11:37AM -3.9330 -38.4230 188° South 275 316 6,900 2,220 Climbing FlightAware
11:37AM -3.9630 -38.4270 188° South 281 323 7,700 1,740 Climbing FlightAware
11:38AM -4.0040 -38.4320 187° South 298 343 8,500 1,800 Climbing FlightAware
11:38AM -4.0390 -38.4360 187° South 301 346 9,400 2,100 Climbing FlightAware
11:39AM -4.0590 -38.4390 189° South 301 346 9,900 1,380 Climbing FlightAware
11:39AM -4.1260 -38.4470 187° South 331 381 10,800 1,200 Climbing FlightAware
11:40AM -4.1890 -38.4540 186° South 355 409 11,600 1,620 Climbing FlightAware
11:41AM -4.2550 -38.4620 187° South 357 411 13,000 1,680 Climbing FlightAware
11:41AM -4.3290 -38.4710 187° South 372 428 14,000 1,440 Climbing FlightAware
11:42AM -4.3980 -38.4790 187° South 375 432 15,100 1,560 Climbing FlightAware
11:43AM -4.4680 -38.4870 187° South 386 444 16,100 1,380 Climbing FlightAware
11:43AM -4.4950 -38.4970 200° South 391 450 16,400 1,200 Climbing FlightAware
11:44AM -4.5560 -38.5390 214° Southwest 404 465 17,200 1,080 Climbing FlightAware
11:44AM -4.6240 -38.5870 215° Southwest 416 479 18,000 1,500 Climbing FlightAware
11:45AM -4.6980 -38.6380 214° Southwest 406 467 19,500 1,500 Climbing FlightAware
11:46AM -4.7610 -38.6820 215° Southwest 413 475 20,200 1,080 Climbing FlightAware
11:46AM -4.8230 -38.7250 215° Southwest 417 480 21,000 1,200 Climbing FlightAware
11:47AM -4.8880 -38.7700 215° Southwest 418 481 21,800 1,020 Climbing FlightAware
11:48AM -4.9590 -38.8180 214° Southwest 423 487 22,500 900 Climbing FlightAware
11:49AM -5.0330 -38.8700 215° Southwest 428 493 23,200 1,260 Climbing FlightAware
11:49AM -5.0970 -38.9140 214° Southwest 419 482 24,300 1,200 Climbing FlightAware
11:50AM -5.1620 -38.9590 215° Southwest 424 488 24,800 720 Climbing FlightAware
11:51AM -5.2350 -39.0100 215° Southwest 428 493 25,400 840 Climbing FlightAware
11:51AM -5.3000 -39.0550 215° Southwest 428 493 26,000 840 Climbing FlightAware
11:52AM -5.3750 -39.1060 214° Southwest 433 498 26,600 720 Climbing FlightAware
11:53AM -5.4410 -39.1520 215° Southwest 437 503 27,100 600 Climbing FlightAware
11:53AM -5.5100 -39.2000 215° Southwest 443 510 27,400 600 Climbing FlightAware
11:54AM -5.5840 -39.2510 214° Southwest 445 512 28,000 480 Climbing FlightAware
11:55AM -5.6450 -39.2930 214° Southwest 444 511 28,100 60 Climbing FlightAware
11:56AM -5.7030 -39.3320 214° Southwest 444 511 28,100  Level FlightAware
11:56AM -5.7610 -39.3710 214° Southwest 444 511 28,100  Level FlightAware
11:57AM -5.8180 -39.4110 215° Southwest 444 511 28,100  Level FlightAware
11:58AM -5.8910 -39.4600 214° Southwest 444 511 28,100  Level FlightAware
11:58AM -5.9340 -39.4890 214° Southwest 444 511 28,100 540 Level FlightAware
12:01PM -6.1760 -39.5791 200° South  Level Estimated
12:02PM -6.2812 -39.6183 200° South  Level Estimated
12:03PM -6.3865 -39.6575 200° South  Level Estimated
12:04PM -6.4917 -39.6967 200° South  Level Estimated
12:05PM -6.5969 -39.7359 200° South  Level Estimated
12:06PM -6.7021 -39.7752 200° South  Level Estimated
12:07PM -6.8073 -39.8144 200° South  Level Estimated
12:08PM -6.9125 -39.8537 200° South  Level Estimated
12:08PM -6.9810 -40.2240 200° South 444 511 34,000  Level FlightAware
12:09PM -6.9810 -40.2240 200° South 443 510 34,000  Level FlightAware
12:10PM -7.0180 -40.2500 215° Southwest 442 509 34,000  Level FlightAware
12:10PM -7.0750 -40.2900 215° Southwest 442 509 34,000  Level FlightAware
12:11PM -7.1320 -40.3310 216° Southwest 442 509 34,000  Level FlightAware
12:12PM -7.2030 -40.3810 215° Southwest 442 509 34,000  Level FlightAware
12:12PM -7.2600 -40.4210 215° Southwest 442 509 34,000  Level FlightAware
12:13PM -7.3170 -40.4610 215° Southwest 442 509 34,000  Level FlightAware
12:14PM -7.3740 -40.5010 215° Southwest 442 509 34,000  Level FlightAware
12:15PM -7.4450 -40.5520 215° Southwest 442 509 34,000  Level FlightAware
12:15PM -7.7190 -40.6610 202° Southwest 418 481 34,000  Level FlightAware
12:16PM -7.7850 -40.6960 208° Southwest 418 481 34,000  Level FlightAware
12:17PM -7.8440 -40.7280 208° Southwest 418 481 34,000  Level FlightAware
12:17PM -7.9020 -40.7590 208° Southwest 418 481 34,000  Level FlightAware
12:18PM -7.9740 -40.7980 208° Southwest 418 481 34,000  Level FlightAware
12:19PM -8.0320 -40.8290 208° Southwest 418 481 34,000  Level FlightAware
12:19PM -8.0900 -40.8600 208° Southwest 418 481 34,000  Level FlightAware
12:20PM -8.1480 -40.8910 208° Southwest 418 481 34,000  Level FlightAware
12:21PM -8.3000 -40.9750 209° Southwest 426 490 34,000  Level FlightAware
12:21PM -8.3590 -41.0070 208° Southwest 426 490 34,000  Level FlightAware
12:22PM -8.4330 -41.0470 208° Southwest 426 490 34,000  Level FlightAware
12:23PM -8.4920 -41.0790 208° Southwest 426 490 34,000  Level FlightAware
12:24PM -8.5900 -41.1330 209° Southwest 422 486 34,000  Level FlightAware
12:24PM -8.6770 -41.1800 208° Southwest 423 487 34,000  Level FlightAware
12:25PM -8.7480 -41.2180 208° Southwest 425 489 34,000  Level FlightAware
12:26PM -8.8210 -41.2580 208° Southwest 430 495 34,000  Level FlightAware
12:27PM -8.9150 -41.3090 208° Southwest 430 495 34,000  Level FlightAware
12:27PM -8.9810 -41.3450 208° Southwest 427 491 34,000  Level FlightAware
12:28PM -9.0510 -41.3830 208° Southwest 427 491 34,000  Level FlightAware
12:28PM -9.1010 -41.4110 209° Southwest 424 488 34,000  Level FlightAware
12:29PM -9.1720 -41.4490 208° Southwest 424 488 34,000  Level FlightAware
12:30PM -9.2310 -41.4800 207° Southwest 424 488 34,000  Level FlightAware
12:31PM -9.2900 -41.5120 208° Southwest 424 488 34,000  Level FlightAware
12:31PM -9.3630 -41.5520 208° Southwest 424 488 34,000  Level FlightAware
12:32PM -9.4950 -41.6250 209° Southwest 425 489 34,000  Level FlightAware
12:33PM -9.5540 -41.6570 208° Southwest 425 489 34,000  Level FlightAware
12:34PM -9.6130 -41.6890 208° Southwest 425 489 34,000  Level FlightAware
12:34PM -9.6720 -41.7200 207° Southwest 425 489 34,000  Level FlightAware
12:35PM -9.7460 -41.7600 208° Southwest 425 489 34,000  Level FlightAware
12:36PM -9.8050 -41.7920 208° Southwest 425 489 34,000  Level FlightAware
12:36PM -9.8640 -41.8240 208° Southwest 425 489 34,000  Level FlightAware
12:37PM -9.9230 -41.8560 208° Southwest 425 489 34,000  Level FlightAware
12:38PM -9.9970 -41.8960 208° Southwest 425 489 34,000  Level FlightAware
12:39PM -10.0560 -41.9270 207° Southwest 425 489 34,000  Level FlightAware
12:39PM -10.1150 -41.9590 208° Southwest 425 489 34,000  Level FlightAware
12:40PM -10.1740 -41.9910 208° Southwest 425 489 34,000  Level FlightAware
12:41PM -10.2330 -42.0230 208° Southwest 425 489 34,000  Level FlightAware
12:41PM -10.3070 -42.0630 208° Southwest 425 489 34,000  Level FlightAware
12:44PM -10.5065 -42.1259 197° South  Level Estimated
12:45PM -10.6039 -42.1566 197° South  Level Estimated
12:46PM -10.7012 -42.1873 197° South  Level Estimated
12:47PM -10.7985 -42.2180 197° South  Level Estimated
12:48PM -10.8959 -42.2488 197° South  Level Estimated
12:49PM -10.9932 -42.2796 197° South  Level Estimated
12:50PM -11.0905 -42.3104 197° South  Level Estimated
12:51PM -11.1878 -42.3412 197° South  Level Estimated
12:52PM -11.2851 -42.3720 197° South  Level Estimated
12:53PM -11.3824 -42.4029 197° South  Level Estimated
12:54PM -11.4797 -42.4338 197° South  Level Estimated
12:55PM -11.5770 -42.4647 197° South  Level Estimated
12:56PM -11.6743 -42.4956 197° South  Level Estimated
12:57PM -11.7716 -42.5265 197° South  Level Estimated
12:58PM -11.8689 -42.5575 197° South  Level Estimated
12:59PM -11.9662 -42.5885 197° South  Level Estimated
01:00PM -12.0635 -42.6195 197° South  Level Estimated
01:01PM -12.1608 -42.6505 197° South  Level Estimated
01:02PM -12.2580 -42.6816 197° South  Level Estimated
01:03PM -12.3553 -42.7127 197° South  Level Estimated
01:04PM -12.4526 -42.7438 197° South  Level Estimated
01:05PM -12.5498 -42.7749 197° South  Level Estimated
01:06PM -12.6471 -42.8061 197° South  Level Estimated
01:07PM -12.7444 -42.8372 197° South  Level Estimated
01:08PM -12.8416 -42.8684 197° South  Level Estimated
01:09PM -12.9389 -42.8997 197° South  Level Estimated
01:10PM -13.0361 -42.9309 197° South  Level Estimated
01:11PM -13.1334 -42.9622 197° South  Level Estimated
01:12PM -13.2306 -42.9935 197° South  Level Estimated
01:13PM -13.3278 -43.0248 197° South  Level Estimated
01:14PM -13.4251 -43.0561 197° South  Level Estimated
01:15PM -13.5223 -43.0875 197° South  Level Estimated
01:16PM -13.6195 -43.1189 197° South  Level Estimated
01:17PM -13.7167 -43.1503 197° South  Level Estimated
01:18PM -13.8139 -43.1818 197° South  Level Estimated
01:19PM -13.9112 -43.2132 197° South  Level Estimated
01:20PM -14.0084 -43.2447 197° South  Level Estimated
01:21PM -14.1056 -43.2763 197° South  Level Estimated
01:22PM -14.2028 -43.3078 197° South  Level Estimated
01:23PM -14.3000 -43.3394 197° South  Level Estimated
01:24PM -14.3972 -43.3710 197° South  Level Estimated
01:25PM -14.4944 -43.4026 197° South  Level Estimated
01:26PM -14.5915 -43.4343 198° South  Level Estimated
01:27PM -14.6887 -43.4660 198° South  Level Estimated
01:28PM -14.7859 -43.4977 198° South  Level Estimated
01:29PM -14.8831 -43.5295 198° South  Level Estimated
01:30PM -14.9802 -43.5612 198° South  Level Estimated
01:31PM -15.0774 -43.5931 198° South  Level Estimated
01:32PM -15.1746 -43.6249 198° South  Level Estimated
01:33PM -15.2717 -43.6568 198° South  Level Estimated
01:34PM -15.3688 -43.6886 198° South  Level Estimated
01:35PM -15.4660 -43.7206 198° South  Level Estimated
01:36PM -15.5631 -43.7525 198° South  Level Estimated
01:37PM -15.6603 -43.7845 198° South  Level Estimated
01:38PM -15.7574 -43.8165 198° South  Level Estimated
01:39PM -15.8545 -43.8486 198° South  Level Estimated
01:39PM -16.4570 -45.5420 198° South 422 486 34,000  Level FlightAware
01:39PM -16.5170 -45.5770 209° Southwest 421 484 34,000  Level FlightAware
01:40PM -15.9516 -43.8806 198° South  Level Estimated
01:40PM -16.5840 -45.6160 209° Southwest 420 483 34,000  Level FlightAware
01:41PM -16.6540 -45.6570 209° Southwest 419 482 34,000  Level FlightAware
01:42PM -16.7300 -45.7010 209° Southwest 419 482 34,000  Level FlightAware
01:42PM -16.8100 -45.7500 210° Southwest 419 482 34,000  Level FlightAware
01:43PM -16.8810 -45.7940 211° Southwest 420 483 34,000  Level FlightAware
01:44PM -16.9540 -45.8380 210° Southwest 420 483 34,000  Level FlightAware
01:44PM -17.0270 -45.8800 209° Southwest 420 483 34,000  Level FlightAware
01:45PM -17.0860 -45.9130 208° Southwest 419 482 34,000  Level FlightAware
01:46PM -17.1550 -45.9520 208° Southwest 420 483 34,000  Level FlightAware
01:47PM -17.2400 -46.0010 209° Southwest 421 484 34,000  Level FlightAware
01:47PM -17.3330 -46.0560 209° Southwest 423 487 34,000  Level FlightAware
01:48PM -17.3810 -46.0840 209° Southwest 423 487 34,000  Level FlightAware
01:49PM -17.4550 -46.1270 209° Southwest 424 488 34,000  Level FlightAware
01:49PM -17.5320 -46.1720 209° Southwest 424 488 34,000  Level FlightAware
01:50PM -17.5940 -46.2090 210° Southwest 424 488 34,000  Level FlightAware
01:51PM -17.6700 -46.2540 209° Southwest 424 488 34,000  Level FlightAware
01:52PM -17.7530 -46.3040 210° Southwest 424 488 34,000  Level FlightAware
01:52PM -17.8140 -46.3390 209° Southwest 425 489 34,000  Level FlightAware
01:53PM -17.8920 -46.3810 207° Southwest 424 488 34,000  Level FlightAware
01:54PM -17.9590 -46.4210 210° Southwest 424 488 34,000  Level FlightAware
01:54PM -18.0270 -46.4630 210° Southwest 424 488 34,000  Level FlightAware
01:55PM -18.1060 -46.5110 210° Southwest 425 489 34,000  Level FlightAware
01:56PM -18.1710 -46.5510 210° Southwest 427 491 34,000  Level FlightAware
01:56PM -18.2500 -46.5990 210° Southwest 429 494 34,000  Level FlightAware
01:57PM -18.3310 -46.6470 209° Southwest 430 495 34,000  Level FlightAware
01:58PM -18.4010 -46.6880 209° Southwest 430 495 34,000  Level FlightAware
01:59PM -18.4960 -46.7450 210° Southwest 429 494 34,000  Level FlightAware
01:59PM -18.5560 -46.7800 209° Southwest 428 493 34,000  Level FlightAware
02:00PM -18.6390 -46.8300 210° Southwest 426 490 34,000  Level FlightAware
02:01PM -18.7090 -46.8710 209° Southwest 424 488 34,000  Level FlightAware
02:01PM -18.7810 -46.9140 209° Southwest 424 488 34,000  Level FlightAware
02:02PM -18.8480 -46.9550 210° Southwest 424 488 34,000  Level FlightAware
02:03PM -18.9140 -46.9940 209° Southwest 424 488 34,000  Level FlightAware
02:04PM -18.9970 -47.0430 209° Southwest 423 487 34,000  Level FlightAware
02:04PM -19.0710 -47.0880 210° Southwest 422 486 34,000  Level FlightAware
02:05PM -19.1510 -47.1250 204° Southwest 427 491 34,000  Level FlightAware
02:06PM -19.2180 -47.1440 195° South 429 494 34,000  Level FlightAware
02:06PM -19.2970 -47.1550 187° South 431 496 34,000  Level FlightAware
02:07PM -19.3910 -47.1610 183° South 430 495 34,000  Level FlightAware
02:08PM -19.4760 -47.1670 184° South 427 491 34,000  Level FlightAware
02:08PM -19.5530 -47.1720 184° South 424 488 34,000  Level FlightAware
02:09PM -19.6430 -47.1790 184° South 424 488 34,000  Level FlightAware
02:10PM -19.7230 -47.1840 183° South 425 489 34,000  Level FlightAware
02:11PM -19.8100 -47.1900 184° South 426 490 34,000  Level FlightAware
02:11PM -19.8890 -47.1960 184° South 427 491 34,000  Level FlightAware
02:12PM -19.9790 -47.2020 184° South 427 491 34,000  Level FlightAware
02:13PM -20.0570 -47.2080 184° South 426 490 34,000  Level FlightAware
02:13PM -20.1470 -47.2140 184° South 425 489 34,000  Level FlightAware
02:14PM -20.2250 -47.2190 183° South 424 488 34,000  Level FlightAware
02:15PM -20.3030 -47.2250 184° South 424 488 34,000  Level FlightAware
02:16PM -20.3950 -47.2310 183° South 425 489 34,000  Level FlightAware
02:16PM -20.4720 -47.2370 184° South 425 489 34,000  Level FlightAware
02:17PM -20.5510 -47.2420 183° South 424 488 34,000  Level FlightAware
02:18PM -20.6360 -47.2400 179° South 430 495 34,000  Level FlightAware
02:18PM -20.7190 -47.2340 176° South 426 490 34,000  Level FlightAware
02:19PM -20.8090 -47.2280 176° South 424 488 34,000  Level FlightAware
02:20PM -20.8890 -47.2220 176° South 423 487 34,000  Level FlightAware
02:20PM -20.9650 -47.2160 176° South 421 484 34,000  Level FlightAware
02:21PM -21.0520 -47.2100 176° South 421 484 34,000  Level FlightAware
02:22PM -21.1300 -47.2040 176° South 421 484 34,000  Level FlightAware
02:23PM -21.2200 -47.1980 176° South 421 484 34,000  Level FlightAware
02:23PM -21.2970 -47.1920 176° South 421 484 34,000  Level FlightAware
02:24PM -21.3780 -47.1860 176° South 421 484 34,000  Level FlightAware
02:25PM -21.4620 -47.1800 176° South 420 483 34,000  Level FlightAware
02:25PM -21.5390 -47.1740 176° South 421 484 34,000  Level FlightAware
02:26PM -21.6290 -47.1680 176° South 421 484 34,000  Level FlightAware
02:27PM -21.7070 -47.1620 176° South 420 483 34,000 -300 Level FlightAware
02:27PM -21.7840 -47.1560 176° South 412 474 33,600 -780 Descending FlightAware
02:28PM -21.8670 -47.1500 176° South 407 468 32,900 -1,440 Descending FlightAware
02:29PM -21.9410 -47.1450 176° South 396 456 31,600 -1,980 Descending FlightAware
02:29PM -22.0090 -47.1400 176° South 390 449 30,300 -1,980 Descending FlightAware
02:30PM -22.0930 -47.1340 176° South 386 444 28,800 -2,040 Descending FlightAware
02:31PM -22.1740 -47.1280 176° South 386 444 27,300 -1,980 Descending FlightAware
02:32PM -22.2430 -47.1220 175° South 374 430 26,000 -1,980 Descending FlightAware
02:32PM -22.3170 -47.1170 176° South 371 427 24,700 -1,920 Descending FlightAware
02:33PM -22.3950 -47.1110 176° South 369 425 23,300 -1,920 Descending FlightAware
02:34PM -22.4640 -47.1060 176° South 372 428 22,000 -1,920 Descending FlightAware
02:34PM -22.5420 -47.1000 176° South 368 423 20,600 -1,800 Descending FlightAware
02:35PM -22.6080 -47.0850 168° South 364 419 19,500 -1,680 Descending FlightAware
02:36PM -22.6740 -47.0570 159° South 362 417 18,400 -1,680 Descending FlightAware
02:36PM -22.7370 -47.0300 158° South 367 422 17,300 -1,680 Descending FlightAware
02:37PM -22.8020 -47.0030 159° South 363 418 16,200 -1,560 Descending FlightAware
02:38PM -22.8710 -46.9740 159° South 359 413 15,100 -1,680 Descending FlightAware
02:39PM -22.9400 -46.9460 160° South 345 397 13,700 -1,860 Descending FlightAware
02:39PM -23.0000 -46.9200 158° South 345 397 12,500 -1,320 Descending FlightAware
02:40PM -23.0650 -46.8930 159° South 312 359 11,900 -780 Descending FlightAware
02:41PM -23.1190 -46.8700 159° South 294 338 11,400 -600 Descending FlightAware
02:41PM -23.1660 -46.8500 159° South 261 300 11,100 -780 Descending FlightAware
02:42PM -23.2010 -46.8350 159° South 261 300 10,500 -1,140 Descending FlightAware
02:43PM -23.2520 -46.8140 159° South 256 295 9,600 -1,260 Descending FlightAware
02:45PM -23.3428 -46.6405 120° Southeast  Level Estimated
02:45PM -23.3780 -46.7570 120° Southeast 246 283 7,100  Level FlightAware
02:46PM -23.4370 -46.7020 139° Southeast 221 254 6,200 -900 Descending FlightAware
02:48PM -23.4330 -46.5114 89° East  Level Estimated
02:48PM -23.4710 -46.6060 89° East 182 209 4,400  Level FlightAware
02:48PM -23.4610 -46.5690 74° East 156 180 3,600 -960 Descending FlightAware
02:49PM -23.4550 -46.5460 74° East 146 168 3,200 -660 Descending FlightAware
02:49PM -23.4510 -46.5320 73° East 145 167 3,000 -480 Descending FlightAware